Terminal Aerodrome Forecast
Issued by NWS Wilmington, NC

Home | Current Version | Previous Version | Text Only | Print | Product List | Glossary On
Versions: 1 2 3 4 5 6 7 8 9 10 11 12 13
000
FTUS42 KILM 230530 CCA
TAFILM
TAF COR
KILM 230530Z 2306/2406 08009KT P6SM SCT060 BKN120
     FM231400 10015G25KT P6SM -RA SCT030 BKN050
     FM231900 12020G30KT 4SM RA OVC025
     FM232300 11018G25KT 3SM RA OVC020
     FM240400 11016G25KT 2SM RA OVC015=

USA.gov is the U.S. government's official web portal to all federal, state and local government web resources and services.